createdAt,value
2019-06-01T00:01:52.272Z,18.43
2019-06-01T00:04:19.078Z,16.30
2019-06-01T00:06:46.878Z,15.40
2019-06-01T00:09:14.237Z,19.00
2019-06-01T00:11:41.256Z,16.20
2019-06-01T00:14:10.433Z,12.70
2019-06-01T00:16:37.186Z,18.20
2019-06-01T00:19:03.945Z,18.80
2019-06-01T00:21:30.574Z,12.33
2019-06-01T00:23:57.378Z,22.00
2019-06-01T00:26:24.134Z,15.33
2019-06-01T00:28:52.906Z,16.80
2019-06-01T00:31:19.415Z,13.17
2019-06-01T00:33:47.326Z,13.87
2019-06-01T00:36:14.458Z,14.23
2019-06-01T00:38:41.623Z,15.47
2019-06-01T00:41:09.016Z,14.87
2019-06-01T00:43:35.703Z,14.03
2019-06-01T00:46:02.586Z,16.40
2019-06-01T00:48:29.441Z,16.90
2019-06-01T00:50:56.095Z,11.97
2019-06-01T00:53:23.073Z,16.97
2019-06-01T00:55:49.773Z,12.30
2019-06-01T00:58:16.527Z,12.90
2019-06-01T01:00:45.567Z,12.07
2019-06-01T01:03:11.730Z,15.47
2019-06-01T01:05:38.401Z,13.03
2019-06-01T01:08:05.289Z,17.93
2019-06-01T01:10:32.064Z,13.27
2019-06-01T01:13:00.630Z,13.77
2019-06-01T01:15:27.436Z,19.27
2019-06-01T01:17:54.308Z,11.13
2019-06-01T01:20:21.283Z,14.57
2019-06-01T01:22:48.604Z,13.97
2019-06-01T01:25:15.692Z,12.90
2019-06-01T01:27:42.317Z,17.13
2019-06-01T01:30:09.893Z,13.73
2019-06-01T01:32:36.538Z,14.87
2019-06-01T01:35:06.758Z,15.47
2019-06-01T01:37:36.096Z,13.50
2019-06-01T01:40:05.859Z,19.00
2019-06-01T01:42:32.566Z,17.07
2019-06-01T01:44:59.244Z,12.63
2019-06-01T01:47:25.909Z,15.07
2019-06-01T01:49:52.502Z,14.30
2019-06-01T01:52:19.243Z,17.53
2019-06-01T01:54:45.888Z,14.50
2019-06-01T01:57:12.467Z,19.47
2019-06-01T01:59:39.170Z,17.53
2019-06-01T02:02:05.776Z,13.80
2019-06-01T02:04:35.072Z,15.87
2019-06-01T02:07:02.402Z,16.00
2019-06-01T02:09:29.234Z,13.37
2019-06-01T02:11:55.818Z,21.03
2019-06-01T02:14:22.560Z,15.97
2019-06-01T02:16:49.247Z,18.47
2019-06-01T02:19:15.898Z,12.63
2019-06-01T02:21:42.641Z,13.47
2019-06-01T02:24:09.278Z,11.63
2019-06-01T02:26:35.926Z,16.63
2019-06-01T02:29:04.382Z,14.00
2019-06-01T02:31:41.583Z,11.50
2019-06-01T02:34:06.267Z,15.23
2019-06-01T02:36:33.203Z,11.50
2019-06-01T02:39:01.110Z,21.00
2019-06-01T02:41:30.317Z,14.47
2019-06-01T02:43:57.429Z,11.17
2019-06-01T02:46:25.576Z,13.00
2019-06-01T02:48:52.234Z,19.37
2019-06-01T02:51:18.841Z,13.77
2019-06-01T02:53:45.595Z,13.63
2019-06-01T02:56:12.279Z,8.93
2019-06-01T02:58:38.953Z,12.27
2019-06-01T03:01:11.375Z,11.83
2019-06-01T03:03:40.299Z,11.97
2019-06-01T03:06:09.374Z,12.83
2019-06-01T03:08:36.770Z,11.53
2019-06-01T03:11:05.981Z,13.83
2019-06-01T03:13:38.201Z,14.03
2019-06-01T03:16:10.724Z,16.27
2019-06-01T03:18:41.137Z,12.10
2019-06-01T03:21:13.289Z,11.80
2019-06-01T03:23:44.539Z,19.87
2019-06-01T03:26:16.203Z,10.90
2019-06-01T03:28:48.585Z,9.93
2019-06-01T03:31:15.220Z,13.13
2019-06-01T03:33:42.009Z,11.77
2019-06-01T03:36:09.127Z,19.33
2019-06-01T03:38:36.151Z,17.17
2019-06-01T03:41:04.016Z,13.73
2019-06-01T03:43:31.132Z,13.53
2019-06-01T03:45:57.992Z,12.93
2019-06-01T03:48:24.836Z,15.23
2019-06-01T03:50:51.911Z,12.27
2019-06-01T03:53:18.687Z,10.73
2019-06-01T03:55:45.369Z,11.50
2019-06-01T03:58:12.033Z,14.27
2019-06-01T04:00:38.596Z,12.47
2019-06-01T04:03:05.240Z,13.50
2019-06-01T04:05:32.261Z,10.80
2019-06-01T04:07:58.926Z,9.57
2019-06-01T04:10:25.605Z,14.83
2019-06-01T04:12:52.224Z,12.90
2019-06-01T04:15:19.175Z,12.27
2019-06-01T04:17:46.842Z,17.53
2019-06-01T04:20:13.838Z,15.30
2019-06-01T04:22:40.599Z,10.90
2019-06-01T04:25:10.309Z,11.17
2019-06-01T04:27:37.040Z,10.27
2019-06-01T04:30:06.875Z,13.70
2019-06-01T04:32:48.850Z,14.00
2019-06-01T04:35:07.214Z,16.00
2019-06-01T04:37:35.541Z,18.10
2019-06-01T04:40:05.323Z,9.80
2019-06-01T04:42:32.278Z,10.20
2019-06-01T04:44:58.963Z,10.37
2019-06-01T04:47:25.634Z,9.47
2019-06-01T04:49:52.254Z,11.97
2019-06-01T04:52:19.377Z,8.20
2019-06-01T04:54:45.972Z,11.90
2019-06-01T04:57:13.026Z,16.33
2019-06-01T04:59:40.283Z,9.63
2019-06-01T05:02:07.331Z,11.77
2019-06-01T05:04:34.170Z,13.00
2019-06-01T05:07:00.801Z,9.13
2019-06-01T05:09:27.464Z,9.30
2019-06-01T05:11:54.205Z,10.23
2019-06-01T05:14:20.864Z,9.50
2019-06-01T05:16:47.503Z,9.37
2019-06-01T05:19:14.362Z,6.67
2019-06-01T05:21:41.018Z,13.37
2019-06-01T05:24:08.830Z,6.27
2019-06-01T05:26:35.955Z,11.27
2019-06-01T05:29:03.445Z,13.43
2019-06-01T05:31:30.108Z,6.17
2019-06-01T05:33:56.840Z,8.30
2019-06-01T05:36:23.409Z,7.63
2019-06-01T05:38:50.079Z,5.17
2019-06-01T05:41:16.791Z,7.20
2019-06-01T05:43:43.569Z,7.70
2019-06-01T05:46:11.782Z,4.83
2019-06-01T05:48:39.046Z,5.13
2019-06-01T05:51:05.695Z,4.77
2019-06-01T05:53:32.390Z,3.83
2019-06-01T05:55:59.101Z,7.83
2019-06-01T05:58:29.127Z,5.73
2019-06-01T06:00:54.319Z,7.73
2019-06-01T06:03:31.991Z,4.30
2019-06-01T06:05:49.700Z,5.00
2019-06-01T06:08:16.344Z,3.07
2019-06-01T06:10:43.777Z,6.03
2019-06-01T06:13:11.132Z,4.00
2019-06-01T06:15:38.248Z,8.43
2019-06-01T06:18:04.927Z,6.53
2019-06-01T06:20:31.744Z,4.87
2019-06-01T06:22:58.544Z,6.70
2019-06-01T06:26:22.630Z,6.17
2019-06-01T06:28:49.820Z,5.03
2019-06-01T06:31:17.030Z,5.30
2019-06-01T06:33:55.881Z,4.30
2019-06-01T06:36:13.546Z,3.80
2019-06-01T06:38:41.765Z,6.27
2019-06-01T06:41:08.410Z,4.87
2019-06-01T06:43:37.933Z,4.93
2019-06-01T06:46:05.653Z,4.73
2019-06-01T06:48:32.468Z,4.70
2019-06-01T06:50:59.386Z,4.50
2019-06-01T06:53:34.563Z,3.90
2019-06-01T06:55:54.749Z,3.93
2019-06-01T06:58:22.472Z,3.77
2019-06-01T07:00:49.612Z,3.63
2019-06-01T07:03:16.874Z,4.37
2019-06-01T07:05:44.040Z,4.43
2019-06-01T07:08:10.759Z,8.73
2019-06-01T07:10:37.462Z,5.17
2019-06-01T07:13:04.179Z,3.23
2019-06-01T07:15:31.736Z,7.73
2019-06-01T07:17:58.563Z,3.40
2019-06-01T07:20:25.761Z,5.00
2019-06-01T07:22:52.750Z,6.13
2019-06-01T07:25:19.646Z,5.83
2019-06-01T07:28:44.680Z,3.67
2019-06-01T07:31:11.109Z,5.77
2019-06-01T07:33:37.719Z,3.13
2019-06-01T07:36:04.442Z,2.97
2019-06-01T07:38:31.173Z,4.10
2019-06-01T07:40:57.763Z,5.37
2019-06-01T07:43:24.781Z,2.63
2019-06-01T07:45:51.649Z,4.87
2019-06-01T07:48:18.539Z,2.77
2019-06-01T07:50:45.267Z,4.13
2019-06-01T07:53:12.606Z,4.37
2019-06-01T07:55:40.611Z,3.77
2019-06-01T07:58:11.905Z,3.70
2019-06-01T08:00:38.572Z,7.43
2019-06-01T08:03:05.164Z,6.00
2019-06-01T08:05:32.216Z,5.90
2019-06-01T08:07:59.661Z,6.80
2019-06-01T08:10:27.713Z,4.67
2019-06-01T08:12:54.987Z,6.77
2019-06-01T08:15:23.414Z,5.57
2019-06-01T08:17:50.483Z,7.10
2019-06-01T08:20:17.457Z,5.00
2019-06-01T08:22:44.361Z,8.77
2019-06-01T08:25:11.251Z,3.97
2019-06-01T08:27:37.899Z,3.70
2019-06-01T08:30:06.826Z,4.60
2019-06-01T08:32:33.785Z,4.40
2019-06-01T08:35:09.078Z,3.40
2019-06-01T08:37:33.776Z,4.07
2019-06-01T08:40:00.589Z,6.80
2019-06-01T08:42:27.442Z,6.17
2019-06-01T08:44:54.317Z,3.57
2019-06-01T08:47:20.978Z,5.40
2019-06-01T08:49:47.633Z,5.60
2019-06-01T08:52:14.432Z,4.20
2019-06-01T08:54:43.814Z,5.27
2019-06-01T08:57:10.772Z,4.57
2019-06-01T08:59:37.392Z,6.90
2019-06-01T09:02:04.273Z,7.10
2019-06-01T09:04:30.918Z,4.10
2019-06-01T09:06:57.466Z,4.17
2019-06-01T09:09:24.906Z,7.77
2019-06-01T09:11:52.023Z,8.60
2019-06-01T09:14:18.832Z,6.07
2019-06-01T09:16:46.110Z,4.30
2019-06-01T09:19:12.724Z,3.73
2019-06-01T09:21:39.435Z,2.80
2019-06-01T09:24:06.300Z,5.30
2019-06-01T09:27:29.763Z,5.57
2019-06-01T09:29:56.823Z,3.97
2019-06-01T09:32:23.463Z,5.50
2019-06-01T09:34:50.380Z,4.37
2019-06-01T09:37:17.142Z,3.70
2019-06-01T09:39:45.108Z,6.10
2019-06-01T09:42:11.818Z,5.80
2019-06-01T09:44:38.458Z,4.50
2019-06-01T09:47:05.154Z,4.53
2019-06-01T09:49:32.597Z,3.87
2019-06-01T09:52:00.830Z,5.23
2019-06-01T09:54:29.447Z,3.73
2019-06-01T09:56:56.241Z,5.73
2019-06-01T09:59:23.237Z,6.83
2019-06-01T10:01:51.429Z,3.87
2019-06-01T10:04:18.257Z,4.33
2019-06-01T10:06:44.937Z,3.77
2019-06-01T10:09:12.863Z,3.43
2019-06-01T10:11:39.525Z,5.73
2019-06-01T10:14:06.430Z,3.63
2019-06-01T10:16:34.416Z,6.90
2019-06-01T10:19:01.579Z,4.40
2019-06-01T10:21:28.204Z,10.50
2019-06-01T10:23:54.831Z,3.90
2019-06-01T10:26:21.439Z,2.83
2019-06-01T10:28:48.253Z,8.27
2019-06-01T10:31:14.975Z,3.03
2019-06-01T10:33:41.557Z,2.90
2019-06-01T10:36:19.970Z,3.73
2019-06-01T10:38:37.426Z,2.87
2019-06-01T10:41:04.342Z,3.43
2019-06-01T10:43:33.706Z,5.70
2019-06-01T10:46:00.561Z,3.20
2019-06-01T10:48:27.171Z,3.13
2019-06-01T10:50:53.871Z,3.17
2019-06-01T10:53:20.647Z,4.47
2019-06-01T10:55:48.705Z,2.83
2019-06-01T10:58:15.599Z,3.37
2019-06-01T11:00:50.121Z,6.93
2019-06-01T11:03:11.092Z,1.80
2019-06-01T11:05:38.772Z,2.60
2019-06-01T11:08:06.095Z,5.73
2019-06-01T11:10:36.874Z,2.20
2019-06-01T11:13:04.053Z,2.00
2019-06-01T11:15:30.839Z,6.37
2019-06-01T11:17:57.519Z,5.40
2019-06-01T11:20:24.294Z,4.77
2019-06-01T11:22:50.990Z,2.90
2019-06-01T11:25:18.066Z,4.43
2019-06-01T11:27:44.787Z,8.47
2019-06-01T11:30:13.140Z,3.00
2019-06-01T11:32:41.889Z,2.33
2019-06-01T11:35:10.488Z,2.80
2019-06-01T11:37:38.399Z,4.27
2019-06-01T11:40:07.176Z,3.03
2019-06-01T11:42:35.055Z,2.40
2019-06-01T11:45:05.617Z,3.10
2019-06-01T11:47:36.867Z,3.30
2019-06-01T11:50:05.158Z,3.27
2019-06-01T11:52:31.914Z,1.93
2019-06-01T11:55:54.854Z,4.20
2019-06-01T11:58:21.519Z,2.63
2019-06-01T12:00:48.364Z,2.70
2019-06-01T12:03:15.095Z,1.77
2019-06-01T12:05:44.114Z,3.33
2019-06-01T12:08:11.754Z,2.97
2019-06-01T12:10:38.955Z,3.73
2019-06-01T12:13:05.927Z,2.90
2019-06-01T12:15:32.751Z,8.60
2019-06-01T12:17:59.388Z,2.83
2019-06-01T12:20:26.287Z,1.90
2019-06-01T12:22:53.033Z,1.77
2019-06-01T12:25:19.792Z,1.80
2019-06-01T12:27:46.585Z,3.80
2019-06-01T12:30:14.309Z,6.00
2019-06-01T12:32:41.931Z,1.90
2019-06-01T12:35:09.505Z,5.27
2019-06-01T12:37:54.981Z,2.73
2019-06-01T12:40:07.737Z,5.43
2019-06-01T12:42:35.040Z,4.33
2019-06-01T12:45:05.549Z,3.90
2019-06-01T12:47:32.532Z,2.50
2019-06-01T12:49:59.404Z,2.13
2019-06-01T12:52:26.351Z,6.93
2019-06-01T12:54:53.224Z,3.27
2019-06-01T12:57:20.544Z,2.40
2019-06-01T12:59:48.376Z,4.27
2019-06-01T13:02:14.998Z,5.10
2019-06-01T13:04:42.813Z,1.83
2019-06-01T13:07:09.616Z,2.33
2019-06-01T13:09:37.892Z,1.90
2019-06-01T13:12:04.733Z,7.03
2019-06-01T13:14:31.898Z,2.00
2019-06-01T13:17:06.973Z,2.43
2019-06-01T13:19:27.434Z,3.00
2019-06-01T13:21:54.293Z,1.40
2019-06-01T13:24:21.057Z,1.07
2019-06-01T13:26:47.898Z,1.70
2019-06-01T13:29:14.831Z,1.33
2019-06-01T13:31:42.051Z,3.17
2019-06-01T13:34:09.142Z,2.47
2019-06-01T13:36:35.893Z,3.77
2019-06-01T13:39:07.874Z,1.63
2019-06-01T13:41:34.838Z,1.23
2019-06-01T13:44:01.898Z,1.93
2019-06-01T13:46:28.498Z,2.70
2019-06-01T13:48:55.082Z,1.60
2019-06-01T13:51:22.195Z,1.73
2019-06-01T13:53:48.997Z,1.80
2019-06-01T13:56:17.132Z,2.43
2019-06-01T13:58:44.281Z,1.43
2019-06-01T14:01:11.227Z,1.53
2019-06-01T14:03:37.799Z,3.53
2019-06-01T14:06:04.556Z,1.57
2019-06-01T14:08:31.390Z,3.70
2019-06-01T14:10:58.110Z,2.50
2019-06-01T14:13:24.809Z,2.33
2019-06-01T14:15:51.665Z,3.37
2019-06-01T14:18:18.625Z,1.93
2019-06-01T14:20:47.545Z,1.43
2019-06-01T14:23:14.417Z,1.77
2019-06-01T14:25:41.117Z,5.37
2019-06-01T14:28:07.939Z,1.93
2019-06-01T14:30:34.834Z,2.67
2019-06-01T14:33:01.738Z,2.90
2019-06-01T14:35:28.541Z,4.93
2019-06-01T14:37:55.381Z,2.70
2019-06-01T14:40:22.725Z,2.10
2019-06-01T14:42:52.002Z,3.10
2019-06-01T14:45:19.943Z,2.83
2019-06-01T14:47:47.154Z,2.13
2019-06-01T14:50:14.901Z,5.40
2019-06-01T14:52:41.463Z,2.23
2019-06-01T14:55:10.857Z,2.73
2019-06-01T14:57:39.495Z,2.70
2019-06-01T15:00:10.134Z,3.17
2019-06-01T15:02:36.860Z,2.47
2019-06-01T15:05:06.629Z,4.80
2019-06-01T15:07:33.296Z,3.70
2019-06-01T15:09:59.955Z,2.33
2019-06-01T15:12:26.598Z,3.00
2019-06-01T15:14:53.314Z,10.73
2019-06-01T15:17:20.027Z,2.53
2019-06-01T15:19:46.712Z,4.17
2019-06-01T15:22:13.313Z,4.13
2019-06-01T15:24:39.930Z,5.93
2019-06-01T15:27:06.644Z,3.03
2019-06-01T15:29:33.495Z,2.50
2019-06-01T15:32:00.296Z,2.83
2019-06-01T15:34:26.895Z,1.60
2019-06-01T15:36:53.746Z,2.67
2019-06-01T15:39:24.790Z,2.93
2019-06-01T15:41:49.120Z,3.73
2019-06-01T15:44:15.712Z,3.50
2019-06-01T15:46:42.447Z,3.87
2019-06-01T15:49:09.052Z,2.70
2019-06-01T15:51:35.618Z,2.90
2019-06-01T15:54:03.216Z,2.57
2019-06-01T15:56:30.266Z,3.43
2019-06-01T15:58:58.611Z,2.50
2019-06-01T16:01:25.852Z,3.47
2019-06-01T16:03:53.183Z,3.30
2019-06-01T16:06:20.206Z,2.22
2019-06-01T16:08:46.844Z,3.73
2019-06-01T16:11:13.707Z,3.27
2019-06-01T16:13:40.296Z,2.27
2019-06-01T16:16:07.049Z,2.03
2019-06-01T16:18:34.314Z,2.77
2019-06-01T16:21:04.336Z,4.73
2019-06-01T16:23:46.179Z,2.35
2019-06-01T16:26:12.156Z,2.40
2019-06-01T16:28:28.699Z,3.17
2019-06-01T16:30:56.365Z,4.77
2019-06-01T16:33:23.272Z,2.60
2019-06-01T16:35:49.901Z,3.87
2019-06-01T16:38:16.566Z,3.83
2019-06-01T16:40:43.483Z,2.10
2019-06-01T16:43:10.176Z,3.03
2019-06-01T16:45:38.866Z,4.60
2019-06-01T16:48:06.686Z,1.72
2019-06-01T16:50:33.601Z,2.07
2019-06-01T16:53:00.410Z,5.93
2019-06-01T16:55:27.479Z,3.47
2019-06-01T16:57:54.292Z,5.63
2019-06-01T17:00:21.240Z,2.67
2019-06-01T17:02:48.276Z,2.67
2019-06-01T17:05:15.359Z,1.70
2019-06-01T17:07:42.178Z,3.80
2019-06-01T17:10:24.985Z,3.77
2019-06-01T17:12:43.320Z,2.00
2019-06-01T17:15:09.392Z,3.17
2019-06-01T17:17:37.745Z,1.83
2019-06-01T17:20:07.930Z,5.73
2019-06-01T17:22:34.968Z,11.90
2019-06-01T17:25:05.837Z,6.80
2019-06-01T17:27:32.841Z,3.43
2019-06-01T17:30:00.029Z,1.67
2019-06-01T17:32:28.135Z,4.13
2019-06-01T17:34:54.845Z,1.90
2019-06-01T17:37:21.788Z,5.90
2019-06-01T17:39:48.576Z,4.50
2019-06-01T17:42:15.470Z,7.57
2019-06-01T17:44:42.169Z,6.67
2019-06-01T17:47:09.269Z,42.90
2019-06-01T17:49:35.957Z,48.03
2019-06-01T17:52:03.712Z,19.00
2019-06-01T17:54:30.915Z,7.77
2019-06-01T17:56:57.626Z,11.97
2019-06-01T17:59:24.306Z,6.23
2019-06-01T18:01:51.106Z,3.37
2019-06-01T18:04:17.931Z,13.10
2019-06-01T18:06:44.736Z,3.80
2019-06-01T18:09:12.836Z,11.93
2019-06-01T18:11:39.837Z,4.40
2019-06-01T18:14:08.250Z,3.17
2019-06-01T18:16:35.367Z,5.00
2019-06-01T18:19:04.096Z,3.53
2019-06-01T18:21:33.492Z,13.37
2019-06-01T18:24:03.436Z,12.27
2019-06-01T18:26:30.360Z,5.33
2019-06-01T18:28:57.120Z,3.17
2019-06-01T18:31:24.228Z,4.53
2019-06-01T18:33:53.634Z,3.93
2019-06-01T18:36:20.035Z,5.73
2019-06-01T18:38:46.909Z,2.83
2019-06-01T18:41:19.393Z,3.63
2019-06-01T18:43:42.456Z,5.10
2019-06-01T18:46:10.140Z,4.20
2019-06-01T18:48:37.413Z,3.13
2019-06-01T18:51:05.938Z,5.83
2019-06-01T18:53:33.261Z,4.40
2019-06-01T18:56:00.021Z,3.90
2019-06-01T18:58:26.703Z,11.43
2019-06-01T19:00:53.506Z,8.80
2019-06-01T19:03:21.482Z,4.63
2019-06-01T19:05:48.308Z,7.93
2019-06-01T19:08:16.209Z,4.47
2019-06-01T19:10:43.602Z,8.43
2019-06-01T19:13:11.695Z,4.87
2019-06-01T19:15:39.170Z,8.43
2019-06-01T19:18:06.376Z,6.93
2019-06-01T19:20:33.510Z,7.20
2019-06-01T19:23:03.483Z,4.33
2019-06-01T19:25:34.274Z,6.43
2019-06-01T19:28:01.549Z,3.93
2019-06-01T19:30:37.070Z,5.57
2019-06-01T19:33:06.760Z,5.73
2019-06-01T19:35:38.098Z,11.20
2019-06-01T19:38:06.897Z,3.73
2019-06-01T19:40:39.768Z,7.13
2019-06-01T19:43:11.490Z,7.17
2019-06-01T19:45:38.266Z,7.67
2019-06-01T19:48:08.021Z,8.30
2019-06-01T19:50:35.565Z,9.33
2019-06-01T19:53:03.051Z,6.80
2019-06-01T19:55:29.978Z,8.17
2019-06-01T19:57:56.819Z,11.33
2019-06-01T20:00:23.933Z,7.33
2019-06-01T20:02:50.786Z,7.63
2019-06-01T20:05:18.720Z,5.73
2019-06-01T20:07:45.792Z,14.17
2019-06-01T20:10:14.320Z,11.17
2019-06-01T20:12:41.476Z,8.03
2019-06-01T20:15:08.970Z,10.73
2019-06-01T20:17:37.709Z,7.97
2019-06-01T20:20:07.337Z,7.33
2019-06-01T20:22:34.496Z,11.43
2019-06-01T20:25:05.560Z,9.47
2019-06-01T20:27:35.022Z,8.10
2019-06-01T20:30:06.220Z,8.03
2019-06-01T20:32:35.223Z,13.00
2019-06-01T20:35:04.832Z,10.87
2019-06-01T20:37:31.870Z,10.10
2019-06-01T20:39:58.700Z,7.37
2019-06-01T20:42:31.779Z,12.47
2019-06-01T20:44:54.087Z,13.53
2019-06-01T20:47:22.956Z,10.30
2019-06-01T20:49:49.902Z,13.83
2019-06-01T20:52:19.015Z,18.00
2019-06-01T20:54:46.030Z,15.80
2019-06-01T20:57:13.336Z,13.77
2019-06-01T20:59:40.174Z,14.00
2019-06-01T21:02:06.875Z,15.97
2019-06-01T21:04:33.508Z,17.63
2019-06-01T21:07:00.432Z,22.10
2019-06-01T21:09:27.213Z,22.03
2019-06-01T21:11:54.018Z,21.67
2019-06-01T21:14:20.688Z,15.40
2019-06-01T21:16:48.156Z,15.30
2019-06-01T21:19:16.171Z,20.07
2019-06-01T21:21:43.354Z,20.70
2019-06-01T21:24:10.008Z,20.53
2019-06-01T21:26:36.722Z,18.10
2019-06-01T21:29:03.787Z,16.50
2019-06-01T21:31:30.373Z,16.97
2019-06-01T21:33:56.960Z,22.63
2019-06-01T21:36:23.671Z,21.20
2019-06-01T21:38:50.406Z,20.70
2019-06-01T21:41:17.519Z,23.53
2019-06-01T21:43:44.660Z,26.07
2019-06-01T21:46:11.493Z,19.27
2019-06-01T21:48:38.145Z,20.63
2019-06-01T21:51:04.892Z,19.63
2019-06-01T21:53:31.767Z,23.30
2019-06-01T21:55:58.411Z,21.23
2019-06-01T21:58:25.518Z,15.37
2019-06-01T22:00:53.739Z,18.23
2019-06-01T22:03:21.098Z,16.83
2019-06-01T22:05:47.972Z,21.20
2019-06-01T22:08:14.698Z,17.10
2019-06-01T22:10:41.580Z,27.73
2019-06-01T22:13:18.074Z,17.10
2019-06-01T22:15:36.887Z,19.07
2019-06-01T22:18:04.103Z,15.67
2019-06-01T22:20:30.739Z,16.60
2019-06-01T22:22:57.553Z,18.77
2019-06-01T22:25:24.178Z,17.57
2019-06-01T22:27:51.003Z,18.80
2019-06-01T22:30:20.316Z,15.63
2019-06-01T22:32:47.241Z,17.30
2019-06-01T22:35:14.256Z,15.37
2019-06-01T22:37:45.245Z,22.47
2019-06-01T22:40:12.342Z,16.37
2019-06-01T22:42:39.247Z,15.00
2019-06-01T22:45:07.200Z,13.63
2019-06-01T22:47:34.047Z,13.90
2019-06-01T22:50:01.076Z,12.80
2019-06-01T22:52:29.141Z,17.73
2019-06-01T22:54:55.943Z,17.20
2019-06-01T22:57:22.827Z,16.53
2019-06-01T22:59:49.518Z,16.90
2019-06-01T23:02:16.254Z,11.93
2019-06-01T23:04:42.902Z,12.33
2019-06-01T23:07:09.760Z,13.43
2019-06-01T23:09:39.425Z,17.10
2019-06-01T23:12:06.155Z,14.73
2019-06-01T23:14:32.923Z,13.57
2019-06-01T23:16:59.782Z,11.23
2019-06-01T23:19:27.926Z,14.40
2019-06-01T23:21:54.802Z,14.23
2019-06-01T23:24:21.864Z,15.23
2019-06-01T23:26:48.706Z,15.53
2019-06-01T23:29:15.353Z,19.33
2019-06-01T23:31:42.073Z,12.33
2019-06-01T23:34:08.902Z,13.73
2019-06-01T23:36:38.703Z,14.40
2019-06-01T23:39:06.444Z,19.70
2019-06-01T23:41:33.369Z,16.07
2019-06-01T23:44:10.983Z,17.37
2019-06-01T23:46:29.184Z,14.93
2019-06-01T23:48:56.283Z,16.30
2019-06-01T23:51:23.420Z,21.80
2019-06-01T23:53:50.336Z,18.97
2019-06-01T23:56:17.241Z,17.53
2019-06-01T23:58:43.823Z,15.53
